sensor_id;sensor_type;location;lat;lon;timestamp;P1;durP1;ratioP1;P2;durP2;ratioP2
69057;SDS011;56128;37.534;-122.308;2024-03-07T00:02:21;1.85;;;0.70;;
69057;SDS011;56128;37.534;-122.308;2024-03-07T00:04:49;2.63;;;0.60;;
69057;SDS011;56128;37.534;-122.308;2024-03-07T00:07:15;1.42;;;0.68;;
69057;SDS011;56128;37.534;-122.308;2024-03-07T00:09:41;1.13;;;0.65;;
69057;SDS011;56128;37.534;-122.308;2024-03-07T00:12:07;1.60;;;0.73;;
69057;SDS011;56128;37.534;-122.308;2024-03-07T00:14:34;0.52;;;0.50;;
69057;SDS011;56128;37.534;-122.308;2024-03-07T00:17:00;2.58;;;0.95;;
69057;SDS011;56128;37.534;-122.308;2024-03-07T00:19:28;3.47;;;0.80;;
69057;SDS011;56128;37.534;-122.308;2024-03-07T00:21:58;4.45;;;0.90;;
69057;SDS011;56128;37.534;-122.308;2024-03-07T00:24:24;3.72;;;0.80;;
69057;SDS011;56128;37.534;-122.308;2024-03-07T00:26:52;1.15;;;0.80;;
69057;SDS011;56128;37.534;-122.308;2024-03-07T00:29:19;2.00;;;0.70;;
69057;SDS011;56128;37.534;-122.308;2024-03-07T00:31:46;1.15;;;0.70;;
69057;SDS011;56128;37.534;-122.308;2024-03-07T00:34:13;3.97;;;0.90;;
69057;SDS011;56128;37.534;-122.308;2024-03-07T00:36:44;1.70;;;0.70;;
69057;SDS011;56128;37.534;-122.308;2024-03-07T00:39:11;8.63;;;4.43;;
69057;SDS011;56128;37.534;-122.308;2024-03-07T00:41:39;6.07;;;3.65;;
69057;SDS011;56128;37.534;-122.308;2024-03-07T00:44:09;3.00;;;0.90;;
69057;SDS011;56128;37.534;-122.308;2024-03-07T00:46:36;2.88;;;0.90;;
69057;SDS011;56128;37.534;-122.308;2024-03-07T00:49:03;2.08;;;0.98;;
69057;SDS011;56128;37.534;-122.308;2024-03-07T00:51:31;3.28;;;1.23;;
69057;SDS011;56128;37.534;-122.308;2024-03-07T00:53:57;4.53;;;1.10;;
69057;SDS011;56128;37.534;-122.308;2024-03-07T00:56:27;4.30;;;1.10;;
69057;SDS011;56128;37.534;-122.308;2024-03-07T00:58:54;3.00;;;1.30;;
69057;SDS011;56128;37.534;-122.308;2024-03-07T01:01:23;2.75;;;0.82;;
69057;SDS011;56128;37.534;-122.308;2024-03-07T01:03:50;3.83;;;0.80;;
69057;SDS011;56128;37.534;-122.308;2024-03-07T01:06:17;2.55;;;0.80;;
69057;SDS011;56128;37.534;-122.308;2024-03-07T01:08:45;2.90;;;0.90;;
69057;SDS011;56128;37.534;-122.308;2024-03-07T01:11:14;2.30;;;0.80;;
69057;SDS011;56128;37.534;-122.308;2024-03-07T01:13:41;5.15;;;1.10;;
69057;SDS011;56128;37.534;-122.308;2024-03-07T01:16:15;3.92;;;0.93;;
69057;SDS011;56128;37.534;-122.308;2024-03-07T01:18:42;4.10;;;1.05;;
69057;SDS011;56128;37.534;-122.308;2024-03-07T01:21:11;7.40;;;1.65;;
69057;SDS011;56128;37.534;-122.308;2024-03-07T01:23:43;3.53;;;1.02;;
69057;SDS011;56128;37.534;-122.308;2024-03-07T01:26:11;4.57;;;1.00;;
69057;SDS011;56128;37.534;-122.308;2024-03-07T01:28:41;3.80;;;1.25;;
69057;SDS011;56128;37.534;-122.308;2024-03-07T01:31:08;6.72;;;1.25;;
69057;SDS011;56128;37.534;-122.308;2024-03-07T01:33:38;6.05;;;1.30;;
69057;SDS011;56128;37.534;-122.308;2024-03-07T01:36:10;8.20;;;1.48;;
69057;SDS011;56128;37.534;-122.308;2024-03-07T01:38:39;9.25;;;1.40;;
69057;SDS011;56128;37.534;-122.308;2024-03-07T01:41:08;9.73;;;1.80;;
69057;SDS011;56128;37.534;-122.308;2024-03-07T01:43:37;7.55;;;1.40;;
69057;SDS011;56128;37.534;-122.308;2024-03-07T01:46:06;7.00;;;1.60;;
69057;SDS011;56128;37.534;-122.308;2024-03-07T01:48:35;9.02;;;1.40;;
69057;SDS011;56128;37.534;-122.308;2024-03-07T01:51:06;11.80;;;2.10;;
69057;SDS011;56128;37.534;-122.308;2024-03-07T01:53:34;9.35;;;1.50;;
69057;SDS011;56128;37.534;-122.308;2024-03-07T01:56:08;8.98;;;1.40;;
69057;SDS011;56128;37.534;-122.308;2024-03-07T01:58:46;6.93;;;1.40;;
69057;SDS011;56128;37.534;-122.308;2024-03-07T02:01:15;9.70;;;1.77;;
69057;SDS011;56128;37.534;-122.308;2024-03-07T02:03:49;5.20;;;1.50;;
69057;SDS011;56128;37.534;-122.308;2024-03-07T02:06:19;5.97;;;1.70;;
69057;SDS011;56128;37.534;-122.308;2024-03-07T02:08:47;10.35;;;1.90;;
69057;SDS011;56128;37.534;-122.308;2024-03-07T02:11:14;8.20;;;1.70;;
69057;SDS011;56128;37.534;-122.308;2024-03-07T02:13:49;14.95;;;2.83;;
69057;SDS011;56128;37.534;-122.308;2024-03-07T02:16:20;14.07;;;2.15;;
69057;SDS011;56128;37.534;-122.308;2024-03-07T02:18:51;9.90;;;1.88;;
69057;SDS011;56128;37.534;-122.308;2024-03-07T02:21:24;9.57;;;2.03;;
69057;SDS011;56128;37.534;-122.308;2024-03-07T02:23:53;10.63;;;2.20;;
69057;SDS011;56128;37.534;-122.308;2024-03-07T02:26:20;9.35;;;2.42;;
69057;SDS011;56128;37.534;-122.308;2024-03-07T02:28:47;13.48;;;2.85;;
69057;SDS011;56128;37.534;-122.308;2024-03-07T02:31:18;15.52;;;3.05;;
69057;SDS011;56128;37.534;-122.308;2024-03-07T02:33:53;10.90;;;2.10;;
69057;SDS011;56128;37.534;-122.308;2024-03-07T02:36:21;11.50;;;2.70;;
69057;SDS011;56128;37.534;-122.308;2024-03-07T02:38:53;12.00;;;2.55;;
69057;SDS011;56128;37.534;-122.308;2024-03-07T02:41:25;9.02;;;2.30;;
69057;SDS011;56128;37.534;-122.308;2024-03-07T02:43:54;10.68;;;2.90;;
69057;SDS011;56128;37.534;-122.308;2024-03-07T02:46:22;10.57;;;2.17;;
69057;SDS011;56128;37.534;-122.308;2024-03-07T02:48:58;8.70;;;2.15;;
69057;SDS011;56128;37.534;-122.308;2024-03-07T02:51:26;9.18;;;1.92;;
69057;SDS011;56128;37.534;-122.308;2024-03-07T02:53:54;7.65;;;2.00;;
69057;SDS011;56128;37.534;-122.308;2024-03-07T02:56:31;13.30;;;2.47;;
69057;SDS011;56128;37.534;-122.308;2024-03-07T02:58:59;10.73;;;1.80;;
69057;SDS011;56128;37.534;-122.308;2024-03-07T03:01:28;8.98;;;1.90;;
69057;SDS011;56128;37.534;-122.308;2024-03-07T03:03:56;10.52;;;2.03;;
69057;SDS011;56128;37.534;-122.308;2024-03-07T03:06:23;13.38;;;2.47;;
69057;SDS011;56128;37.534;-122.308;2024-03-07T03:08:54;10.57;;;2.20;;
69057;SDS011;56128;37.534;-122.308;2024-03-07T03:11:21;14.30;;;2.30;;
69057;SDS011;56128;37.534;-122.308;2024-03-07T03:13:48;12.40;;;2.35;;
69057;SDS011;56128;37.534;-122.308;2024-03-07T03:16:15;15.55;;;2.80;;
69057;SDS011;56128;37.534;-122.308;2024-03-07T03:18:41;16.08;;;2.65;;
69057;SDS011;56128;37.534;-122.308;2024-03-07T03:21:09;10.75;;;2.28;;
69057;SDS011;56128;37.534;-122.308;2024-03-07T03:23:36;9.32;;;2.13;;
69057;SDS011;56128;37.534;-122.308;2024-03-07T03:26:02;13.70;;;2.22;;
69057;SDS011;56128;37.534;-122.308;2024-03-07T03:28:30;18.17;;;2.70;;
69057;SDS011;56128;37.534;-122.308;2024-03-07T03:30:58;15.32;;;2.88;;
69057;SDS011;56128;37.534;-122.308;2024-03-07T03:33:25;15.93;;;3.10;;
69057;SDS011;56128;37.534;-122.308;2024-03-07T03:35:52;20.10;;;5.00;;
69057;SDS011;56128;37.534;-122.308;2024-03-07T03:38:20;18.55;;;4.43;;
69057;SDS011;56128;37.534;-122.308;2024-03-07T03:40:48;17.38;;;3.55;;
69057;SDS011;56128;37.534;-122.308;2024-03-07T03:43:18;13.65;;;2.80;;
69057;SDS011;56128;37.534;-122.308;2024-03-07T03:45:45;14.73;;;2.85;;
69057;SDS011;56128;37.534;-122.308;2024-03-07T03:48:13;15.82;;;3.55;;
69057;SDS011;56128;37.534;-122.308;2024-03-07T03:50:47;20.70;;;3.40;;
69057;SDS011;56128;37.534;-122.308;2024-03-07T03:53:14;15.00;;;2.90;;
69057;SDS011;56128;37.534;-122.308;2024-03-07T03:55:40;16.48;;;2.70;;
69057;SDS011;56128;37.534;-122.308;2024-03-07T03:58:07;14.57;;;2.20;;
69057;SDS011;56128;37.534;-122.308;2024-03-07T04:00:34;21.17;;;2.92;;
69057;SDS011;56128;37.534;-122.308;2024-03-07T04:03:01;19.90;;;3.08;;
69057;SDS011;56128;37.534;-122.308;2024-03-07T04:05:28;13.85;;;2.72;;
69057;SDS011;56128;37.534;-122.308;2024-03-07T04:07:55;15.77;;;2.72;;
69057;SDS011;56128;37.534;-122.308;2024-03-07T04:10:26;15.02;;;2.50;;
69057;SDS011;56128;37.534;-122.308;2024-03-07T04:12:53;20.00;;;2.92;;
69057;SDS011;56128;37.534;-122.308;2024-03-07T04:15:19;18.85;;;3.78;;
69057;SDS011;56128;37.534;-122.308;2024-03-07T04:17:47;19.27;;;3.20;;
69057;SDS011;56128;37.534;-122.308;2024-03-07T04:20:14;12.73;;;3.55;;
69057;SDS011;56128;37.534;-122.308;2024-03-07T04:22:42;19.95;;;3.10;;
69057;SDS011;56128;37.534;-122.308;2024-03-07T04:25:09;19.27;;;3.33;;
69057;SDS011;56128;37.534;-122.308;2024-03-07T04:27:36;13.45;;;2.95;;
69057;SDS011;56128;37.534;-122.308;2024-03-07T04:30:06;12.88;;;3.05;;
69057;SDS011;56128;37.534;-122.308;2024-03-07T04:32:36;18.02;;;3.22;;
69057;SDS011;56128;37.534;-122.308;2024-03-07T04:35:03;18.30;;;2.65;;
69057;SDS011;56128;37.534;-122.308;2024-03-07T04:37:33;16.70;;;2.65;;
69057;SDS011;56128;37.534;-122.308;2024-03-07T04:40:06;21.52;;;3.33;;
69057;SDS011;56128;37.534;-122.308;2024-03-07T04:42:45;11.93;;;2.50;;
69057;SDS011;56128;37.534;-122.308;2024-03-07T04:45:16;17.65;;;3.35;;
69057;SDS011;56128;37.534;-122.308;2024-03-07T04:47:43;19.15;;;2.88;;
69057;SDS011;56128;37.534;-122.308;2024-03-07T04:50:11;17.63;;;2.90;;
69057;SDS011;56128;37.534;-122.308;2024-03-07T04:52:39;23.73;;;3.20;;
69057;SDS011;56128;37.534;-122.308;2024-03-07T04:55:06;12.45;;;2.42;;
69057;SDS011;56128;37.534;-122.308;2024-03-07T04:57:36;20.55;;;2.83;;
69057;SDS011;56128;37.534;-122.308;2024-03-07T05:00:08;15.73;;;2.67;;
69057;SDS011;56128;37.534;-122.308;2024-03-07T05:02:45;12.23;;;3.10;;
69057;SDS011;56128;37.534;-122.308;2024-03-07T05:05:13;19.30;;;2.97;;
69057;SDS011;56128;37.534;-122.308;2024-03-07T05:07:39;15.45;;;2.63;;
69057;SDS011;56128;37.534;-122.308;2024-03-07T05:10:06;13.85;;;2.70;;
69057;SDS011;56128;37.534;-122.308;2024-03-07T05:12:33;15.23;;;2.85;;
69057;SDS011;56128;37.534;-122.308;2024-03-07T05:14:59;14.57;;;2.42;;
69057;SDS011;56128;37.534;-122.308;2024-03-07T05:17:26;15.27;;;2.70;;
69057;SDS011;56128;37.534;-122.308;2024-03-07T05:19:54;16.60;;;2.92;;
69057;SDS011;56128;37.534;-122.308;2024-03-07T05:22:20;21.75;;;3.15;;
69057;SDS011;56128;37.534;-122.308;2024-03-07T05:24:50;13.35;;;3.13;;
69057;SDS011;56128;37.534;-122.308;2024-03-07T05:27:17;20.55;;;3.42;;
69057;SDS011;56128;37.534;-122.308;2024-03-07T05:29:43;18.30;;;2.75;;
69057;SDS011;56128;37.534;-122.308;2024-03-07T05:32:22;17.85;;;3.75;;
69057;SDS011;56128;37.534;-122.308;2024-03-07T05:34:49;17.45;;;4.00;;
69057;SDS011;56128;37.534;-122.308;2024-03-07T05:37:16;16.48;;;2.75;;
69057;SDS011;56128;37.534;-122.308;2024-03-07T05:39:42;19.02;;;3.35;;
69057;SDS011;56128;37.534;-122.308;2024-03-07T05:42:08;19.60;;;2.72;;
69057;SDS011;56128;37.534;-122.308;2024-03-07T05:44:39;17.33;;;2.50;;
69057;SDS011;56128;37.534;-122.308;2024-03-07T05:47:08;15.15;;;2.55;;
69057;SDS011;56128;37.534;-122.308;2024-03-07T05:49:35;22.58;;;3.55;;
69057;SDS011;56128;37.534;-122.308;2024-03-07T05:52:04;19.42;;;3.20;;
69057;SDS011;56128;37.534;-122.308;2024-03-07T05:54:31;24.92;;;3.05;;
69057;SDS011;56128;37.534;-122.308;2024-03-07T05:56:58;20.80;;;3.40;;
69057;SDS011;56128;37.534;-122.308;2024-03-07T05:59:25;22.85;;;3.53;;
69057;SDS011;56128;37.534;-122.308;2024-03-07T06:01:54;17.02;;;3.05;;
69057;SDS011;56128;37.534;-122.308;2024-03-07T06:04:21;14.60;;;3.20;;
69057;SDS011;56128;37.534;-122.308;2024-03-07T06:06:47;22.48;;;3.45;;
69057;SDS011;56128;37.534;-122.308;2024-03-07T06:09:14;19.40;;;2.67;;
69057;SDS011;56128;37.534;-122.308;2024-03-07T06:11:46;21.10;;;2.90;;
69057;SDS011;56128;37.534;-122.308;2024-03-07T06:14:13;19.35;;;2.80;;
69057;SDS011;56128;37.534;-122.308;2024-03-07T06:16:40;22.42;;;2.92;;
69057;SDS011;56128;37.534;-122.308;2024-03-07T06:19:07;12.57;;;2.42;;
69057;SDS011;56128;37.534;-122.308;2024-03-07T06:21:35;16.30;;;2.72;;
69057;SDS011;56128;37.534;-122.308;2024-03-07T06:24:04;20.45;;;3.45;;
69057;SDS011;56128;37.534;-122.308;2024-03-07T06:26:34;17.40;;;3.30;;
69057;SDS011;56128;37.534;-122.308;2024-03-07T06:29:03;17.33;;;3.17;;
69057;SDS011;56128;37.534;-122.308;2024-03-07T06:31:33;21.02;;;3.85;;
69057;SDS011;56128;37.534;-122.308;2024-03-07T06:34:00;20.83;;;3.80;;
69057;SDS011;56128;37.534;-122.308;2024-03-07T06:36:26;20.73;;;3.58;;
69057;SDS011;56128;37.534;-122.308;2024-03-07T06:38:53;24.02;;;3.28;;
69057;SDS011;56128;37.534;-122.308;2024-03-07T06:41:39;19.90;;;4.00;;
69057;SDS011;56128;37.534;-122.308;2024-03-07T06:44:06;19.42;;;3.10;;
69057;SDS011;56128;37.534;-122.308;2024-03-07T06:46:34;15.18;;;2.65;;
69057;SDS011;56128;37.534;-122.308;2024-03-07T06:49:01;16.55;;;3.15;;
69057;SDS011;56128;37.534;-122.308;2024-03-07T06:51:27;15.55;;;2.90;;
69057;SDS011;56128;37.534;-122.308;2024-03-07T06:53:53;18.25;;;2.97;;
69057;SDS011;56128;37.534;-122.308;2024-03-07T06:56:21;14.82;;;2.92;;
69057;SDS011;56128;37.534;-122.308;2024-03-07T06:58:49;24.08;;;4.25;;
69057;SDS011;56128;37.534;-122.308;2024-03-07T07:01:15;22.30;;;3.10;;
69057;SDS011;56128;37.534;-122.308;2024-03-07T07:03:43;21.88;;;3.10;;
69057;SDS011;56128;37.534;-122.308;2024-03-07T07:06:10;15.77;;;2.85;;
69057;SDS011;56128;37.534;-122.308;2024-03-07T07:08:36;16.20;;;2.80;;
69057;SDS011;56128;37.534;-122.308;2024-03-07T07:11:03;23.10;;;3.45;;
69057;SDS011;56128;37.534;-122.308;2024-03-07T07:13:30;17.77;;;2.78;;
69057;SDS011;56128;37.534;-122.308;2024-03-07T07:15:56;12.07;;;2.75;;
69057;SDS011;56128;37.534;-122.308;2024-03-07T07:18:23;14.50;;;2.67;;
69057;SDS011;56128;37.534;-122.308;2024-03-07T07:20:49;11.25;;;2.65;;
69057;SDS011;56128;37.534;-122.308;2024-03-07T07:23:19;16.88;;;2.55;;
69057;SDS011;56128;37.534;-122.308;2024-03-07T07:25:45;25.73;;;3.28;;
69057;SDS011;56128;37.534;-122.308;2024-03-07T07:28:12;16.33;;;2.50;;
69057;SDS011;56128;37.534;-122.308;2024-03-07T07:30:38;18.45;;;3.00;;
69057;SDS011;56128;37.534;-122.308;2024-03-07T07:33:05;17.05;;;2.78;;
69057;SDS011;56128;37.534;-122.308;2024-03-07T07:35:31;22.27;;;3.00;;
69057;SDS011;56128;37.534;-122.308;2024-03-07T07:37:59;15.40;;;2.38;;
69057;SDS011;56128;37.534;-122.308;2024-03-07T07:40:26;20.08;;;3.05;;
69057;SDS011;56128;37.534;-122.308;2024-03-07T07:42:53;20.50;;;3.35;;
69057;SDS011;56128;37.534;-122.308;2024-03-07T07:45:20;17.70;;;3.03;;
69057;SDS011;56128;37.534;-122.308;2024-03-07T07:47:48;24.08;;;3.42;;
69057;SDS011;56128;37.534;-122.308;2024-03-07T07:50:17;19.63;;;2.85;;
69057;SDS011;56128;37.534;-122.308;2024-03-07T07:52:48;17.80;;;3.40;;
69057;SDS011;56128;37.534;-122.308;2024-03-07T07:55:22;15.27;;;3.10;;
69057;SDS011;56128;37.534;-122.308;2024-03-07T07:57:51;17.55;;;2.70;;
69057;SDS011;56128;37.534;-122.308;2024-03-07T08:00:20;21.08;;;3.28;;
69057;SDS011;56128;37.534;-122.308;2024-03-07T08:02:57;23.30;;;3.03;;
69057;SDS011;56128;37.534;-122.308;2024-03-07T08:05:25;19.75;;;2.95;;
69057;SDS011;56128;37.534;-122.308;2024-03-07T08:07:54;25.52;;;3.30;;
69057;SDS011;56128;37.534;-122.308;2024-03-07T08:10:25;14.88;;;3.13;;
69057;SDS011;56128;37.534;-122.308;2024-03-07T08:12:56;17.90;;;3.28;;
69057;SDS011;56128;37.534;-122.308;2024-03-07T08:15:24;24.65;;;3.42;;
69057;SDS011;56128;37.534;-122.308;2024-03-07T08:17:53;26.50;;;3.45;;
69057;SDS011;56128;37.534;-122.308;2024-03-07T08:20:23;21.63;;;3.10;;
69057;SDS011;56128;37.534;-122.308;2024-03-07T08:22:51;24.95;;;3.40;;
69057;SDS011;56128;37.534;-122.308;2024-03-07T08:25:22;24.48;;;3.80;;
69057;SDS011;56128;37.534;-122.308;2024-03-07T08:27:50;19.52;;;3.22;;
69057;SDS011;56128;37.534;-122.308;2024-03-07T08:30:18;23.92;;;3.53;;
69057;SDS011;56128;37.534;-122.308;2024-03-07T08:32:45;19.63;;;3.45;;
69057;SDS011;56128;37.534;-122.308;2024-03-07T08:35:12;27.63;;;3.85;;
69057;SDS011;56128;37.534;-122.308;2024-03-07T08:37:39;20.27;;;3.47;;
69057;SDS011;56128;37.534;-122.308;2024-03-07T08:40:06;30.63;;;3.95;;
69057;SDS011;56128;37.534;-122.308;2024-03-07T08:42:37;26.90;;;4.40;;
69057;SDS011;56128;37.534;-122.308;2024-03-07T08:45:04;24.95;;;4.25;;
69057;SDS011;56128;37.534;-122.308;2024-03-07T08:47:31;27.30;;;4.72;;
69057;SDS011;56128;37.534;-122.308;2024-03-07T08:49:58;29.75;;;4.10;;
69057;SDS011;56128;37.534;-122.308;2024-03-07T08:52:25;27.73;;;4.38;;
69057;SDS011;56128;37.534;-122.308;2024-03-07T08:54:53;32.45;;;4.65;;
69057;SDS011;56128;37.534;-122.308;2024-03-07T08:57:20;33.55;;;4.57;;
69057;SDS011;56128;37.534;-122.308;2024-03-07T08:59:47;36.35;;;5.15;;
69057;SDS011;56128;37.534;-122.308;2024-03-07T09:02:14;30.90;;;4.63;;
69057;SDS011;56128;37.534;-122.308;2024-03-07T09:04:40;30.75;;;4.22;;
69057;SDS011;56128;37.534;-122.308;2024-03-07T09:07:07;30.90;;;5.28;;
69057;SDS011;56128;37.534;-122.308;2024-03-07T09:09:33;33.30;;;4.30;;
69057;SDS011;56128;37.534;-122.308;2024-03-07T09:12:00;25.95;;;4.63;;
69057;SDS011;56128;37.534;-122.308;2024-03-07T09:14:28;26.65;;;4.03;;
69057;SDS011;56128;37.534;-122.308;2024-03-07T09:16:54;26.10;;;4.15;;
69057;SDS011;56128;37.534;-122.308;2024-03-07T09:19:21;26.23;;;3.80;;
69057;SDS011;56128;37.534;-122.308;2024-03-07T09:21:52;33.60;;;4.85;;
69057;SDS011;56128;37.534;-122.308;2024-03-07T09:24:19;20.50;;;3.90;;
69057;SDS011;56128;37.534;-122.308;2024-03-07T09:26:52;26.08;;;4.15;;
69057;SDS011;56128;37.534;-122.308;2024-03-07T09:29:22;27.92;;;4.53;;
69057;SDS011;56128;37.534;-122.308;2024-03-07T09:31:51;30.65;;;4.07;;
69057;SDS011;56128;37.534;-122.308;2024-03-07T09:34:18;24.05;;;4.03;;
69057;SDS011;56128;37.534;-122.308;2024-03-07T09:36:48;27.95;;;4.55;;
69057;SDS011;56128;37.534;-122.308;2024-03-07T09:39:15;23.77;;;4.03;;
69057;SDS011;56128;37.534;-122.308;2024-03-07T09:41:42;23.70;;;4.53;;
69057;SDS011;56128;37.534;-122.308;2024-03-07T09:44:09;19.67;;;3.30;;
69057;SDS011;56128;37.534;-122.308;2024-03-07T09:46:37;23.92;;;3.83;;
69057;SDS011;56128;37.534;-122.308;2024-03-07T09:49:04;27.90;;;4.20;;
69057;SDS011;56128;37.534;-122.308;2024-03-07T09:51:35;29.05;;;4.30;;
69057;SDS011;56128;37.534;-122.308;2024-03-07T09:54:01;21.83;;;3.75;;
69057;SDS011;56128;37.534;-122.308;2024-03-07T09:56:27;28.88;;;4.10;;
69057;SDS011;56128;37.534;-122.308;2024-03-07T09:58:57;23.92;;;3.75;;
69057;SDS011;56128;37.534;-122.308;2024-03-07T10:01:26;31.20;;;4.70;;
69057;SDS011;56128;37.534;-122.308;2024-03-07T10:03:57;28.67;;;3.97;;
69057;SDS011;56128;37.534;-122.308;2024-03-07T10:06:30;29.05;;;4.15;;
69057;SDS011;56128;37.534;-122.308;2024-03-07T10:08:57;26.23;;;4.00;;
69057;SDS011;56128;37.534;-122.308;2024-03-07T10:11:24;29.17;;;4.55;;
69057;SDS011;56128;37.534;-122.308;2024-03-07T10:13:52;24.55;;;4.15;;
69057;SDS011;56128;37.534;-122.308;2024-03-07T10:16:18;26.10;;;4.13;;
69057;SDS011;56128;37.534;-122.308;2024-03-07T10:18:44;29.13;;;4.20;;
69057;SDS011;56128;37.534;-122.308;2024-03-07T10:21:14;22.10;;;3.78;;
69057;SDS011;56128;37.534;-122.308;2024-03-07T10:23:43;29.70;;;4.05;;
69057;SDS011;56128;37.534;-122.308;2024-03-07T10:26:09;21.50;;;3.25;;
69057;SDS011;56128;37.534;-122.308;2024-03-07T10:28:37;26.27;;;3.85;;
69057;SDS011;56128;37.534;-122.308;2024-03-07T10:31:04;25.13;;;3.67;;
69057;SDS011;56128;37.534;-122.308;2024-03-07T10:33:40;17.77;;;4.17;;
69057;SDS011;56128;37.534;-122.308;2024-03-07T10:36:06;27.50;;;3.58;;
69057;SDS011;56128;37.534;-122.308;2024-03-07T10:38:38;23.88;;;3.53;;
69057;SDS011;56128;37.534;-122.308;2024-03-07T10:41:05;19.83;;;3.55;;
69057;SDS011;56128;37.534;-122.308;2024-03-07T10:43:36;20.45;;;3.33;;
69057;SDS011;56128;37.534;-122.308;2024-03-07T10:46:05;19.77;;;4.00;;
69057;SDS011;56128;37.534;-122.308;2024-03-07T10:48:34;22.40;;;3.35;;
69057;SDS011;56128;37.534;-122.308;2024-03-07T10:53:53;15.10;;;2.80;;
69057;SDS011;56128;37.534;-122.308;2024-03-07T10:59:30;17.40;;;3.28;;
69057;SDS011;56128;37.534;-122.308;2024-03-07T11:04:55;20.55;;;3.72;;
69057;SDS011;56128;37.534;-122.308;2024-03-07T11:07:22;23.98;;;4.28;;
69057;SDS011;56128;37.534;-122.308;2024-03-07T11:09:49;26.30;;;4.05;;
69057;SDS011;56128;37.534;-122.308;2024-03-07T11:12:19;22.52;;;4.60;;
69057;SDS011;56128;37.534;-122.308;2024-03-07T11:14:47;20.00;;;3.53;;
69057;SDS011;56128;37.534;-122.308;2024-03-07T11:17:17;18.80;;;3.45;;
69057;SDS011;56128;37.534;-122.308;2024-03-07T11:19:45;25.73;;;3.47;;
69057;SDS011;56128;37.534;-122.308;2024-03-07T11:22:27;18.58;;;3.65;;
69057;SDS011;56128;37.534;-122.308;2024-03-07T11:25:01;17.98;;;3.45;;
69057;SDS011;56128;37.534;-122.308;2024-03-07T11:27:39;24.08;;;4.13;;
69057;SDS011;56128;37.534;-122.308;2024-03-07T11:30:08;19.40;;;3.35;;
69057;SDS011;56128;37.534;-122.308;2024-03-07T11:32:39;19.55;;;3.22;;
69057;SDS011;56128;37.534;-122.308;2024-03-07T11:35:13;26.65;;;4.18;;
69057;SDS011;56128;37.534;-122.308;2024-03-07T11:37:40;17.02;;;2.90;;
69057;SDS011;56128;37.534;-122.308;2024-03-07T11:40:59;20.17;;;3.30;;
69057;SDS011;56128;37.534;-122.308;2024-03-07T11:43:00;19.55;;;3.17;;
69057;SDS011;56128;37.534;-122.308;2024-03-07T11:45:30;16.02;;;3.25;;
69057;SDS011;56128;37.534;-122.308;2024-03-07T11:48:04;15.35;;;2.70;;
69057;SDS011;56128;37.534;-122.308;2024-03-07T11:53:06;22.60;;;3.38;;
69057;SDS011;56128;37.534;-122.308;2024-03-07T11:55:34;12.35;;;2.58;;
69057;SDS011;56128;37.534;-122.308;2024-03-07T11:58:10;16.70;;;2.92;;
69057;SDS011;56128;37.534;-122.308;2024-03-07T12:00:48;18.08;;;2.65;;
69057;SDS011;56128;37.534;-122.308;2024-03-07T12:03:20;15.43;;;3.60;;
69057;SDS011;56128;37.534;-122.308;2024-03-07T12:05:47;17.25;;;3.20;;
69057;SDS011;56128;37.534;-122.308;2024-03-07T12:08:14;16.80;;;2.55;;
69057;SDS011;56128;37.534;-122.308;2024-03-07T12:10:41;14.25;;;2.53;;
69057;SDS011;56128;37.534;-122.308;2024-03-07T12:13:11;19.02;;;2.95;;
69057;SDS011;56128;37.534;-122.308;2024-03-07T12:15:41;14.90;;;2.33;;
69057;SDS011;56128;37.534;-122.308;2024-03-07T12:18:08;19.42;;;2.97;;
69057;SDS011;56128;37.534;-122.308;2024-03-07T12:20:39;15.68;;;2.55;;
69057;SDS011;56128;37.534;-122.308;2024-03-07T12:23:07;22.23;;;2.90;;
69057;SDS011;56128;37.534;-122.308;2024-03-07T12:25:37;10.88;;;2.40;;
69057;SDS011;56128;37.534;-122.308;2024-03-07T12:28:05;9.98;;;2.45;;
69057;SDS011;56128;37.534;-122.308;2024-03-07T12:30:55;18.33;;;2.53;;
69057;SDS011;56128;37.534;-122.308;2024-03-07T12:33:22;15.32;;;2.67;;
69057;SDS011;56128;37.534;-122.308;2024-03-07T12:35:53;13.45;;;2.80;;
69057;SDS011;56128;37.534;-122.308;2024-03-07T12:38:31;16.00;;;2.30;;
69057;SDS011;56128;37.534;-122.308;2024-03-07T12:43:39;9.07;;;2.42;;
69057;SDS011;56128;37.534;-122.308;2024-03-07T12:46:12;15.80;;;2.55;;
69057;SDS011;56128;37.534;-122.308;2024-03-07T12:48:42;14.80;;;2.78;;
69057;SDS011;56128;37.534;-122.308;2024-03-07T12:51:10;13.07;;;2.63;;
69057;SDS011;56128;37.534;-122.308;2024-03-07T12:53:42;15.32;;;2.55;;
69057;SDS011;56128;37.534;-122.308;2024-03-07T12:56:08;12.07;;;2.45;;
69057;SDS011;56128;37.534;-122.308;2024-03-07T12:58:34;8.75;;;2.25;;
69057;SDS011;56128;37.534;-122.308;2024-03-07T13:01:01;12.73;;;2.30;;
69057;SDS011;56128;37.534;-122.308;2024-03-07T13:03:28;13.95;;;2.22;;
69057;SDS011;56128;37.534;-122.308;2024-03-07T13:05:58;19.02;;;2.45;;
69057;SDS011;56128;37.534;-122.308;2024-03-07T13:08:30;11.52;;;2.17;;
69057;SDS011;56128;37.534;-122.308;2024-03-07T13:10:56;9.77;;;2.15;;
69057;SDS011;56128;37.534;-122.308;2024-03-07T13:13:24;11.13;;;1.98;;
69057;SDS011;56128;37.534;-122.308;2024-03-07T13:15:50;13.90;;;2.13;;
69057;SDS011;56128;37.534;-122.308;2024-03-07T13:18:20;11.63;;;2.42;;
69057;SDS011;56128;37.534;-122.308;2024-03-07T13:20:46;14.60;;;2.58;;
69057;SDS011;56128;37.534;-122.308;2024-03-07T13:23:13;15.75;;;2.58;;
69057;SDS011;56128;37.534;-122.308;2024-03-07T13:25:39;13.68;;;2.65;;
69057;SDS011;56128;37.534;-122.308;2024-03-07T13:31:04;14.93;;;2.30;;
69057;SDS011;56128;37.534;-122.308;2024-03-07T13:33:31;10.43;;;2.20;;
69057;SDS011;56128;37.534;-122.308;2024-03-07T13:35:58;18.15;;;3.17;;
69057;SDS011;56128;37.534;-122.308;2024-03-07T13:38:26;12.45;;;2.80;;
69057;SDS011;56128;37.534;-122.308;2024-03-07T13:40:52;14.55;;;2.35;;
69057;SDS011;56128;37.534;-122.308;2024-03-07T13:43:18;14.52;;;3.78;;
69057;SDS011;56128;37.534;-122.308;2024-03-07T13:45:44;15.85;;;2.80;;
69057;SDS011;56128;37.534;-122.308;2024-03-07T13:48:13;28.45;;;3.35;;
69057;SDS011;56128;37.534;-122.308;2024-03-07T13:50:42;21.63;;;3.10;;
69057;SDS011;56128;37.534;-122.308;2024-03-07T13:53:15;11.05;;;2.60;;
69057;SDS011;56128;37.534;-122.308;2024-03-07T14:09:44;6.72;;;1.92;;
69057;SDS011;56128;37.534;-122.308;2024-03-07T14:32:13;15.30;;;2.55;;
69057;SDS011;56128;37.534;-122.308;2024-03-07T14:37:55;9.05;;;2.20;;
69057;SDS011;56128;37.534;-122.308;2024-03-07T14:40:22;8.68;;;2.08;;
69057;SDS011;56128;37.534;-122.308;2024-03-07T14:42:51;8.02;;;2.03;;
69057;SDS011;56128;37.534;-122.308;2024-03-07T14:48:20;9.43;;;1.83;;
69057;SDS011;56128;37.534;-122.308;2024-03-07T14:50:46;9.55;;;2.10;;
69057;SDS011;56128;37.534;-122.308;2024-03-07T14:53:13;8.00;;;2.03;;
69057;SDS011;56128;37.534;-122.308;2024-03-07T14:55:43;11.77;;;2.85;;
69057;SDS011;56128;37.534;-122.308;2024-03-07T14:58:09;10.75;;;1.95;;
69057;SDS011;56128;37.534;-122.308;2024-03-07T15:00:36;8.90;;;1.83;;
69057;SDS011;56128;37.534;-122.308;2024-03-07T15:03:10;12.52;;;2.10;;
69057;SDS011;56128;37.534;-122.308;2024-03-07T15:05:42;16.55;;;2.33;;